الصفحة الرئيسية
METAR-TAF:

METAR-TAF

مطار :

مطار جيبوتي الدولي

جيبوتي, جيبوتي

دائرة عرض: 11-33N, خط طول: 043-10E, ارتفاع: 49 متر

مراقبة الطقس الحالي

تاريخ ووقت الإصدار 7ساعات و 39 دقيقة قبل الساعة 19:00UTC
ريح 5 عقدة من الجنوب/الجنوب الشرقي
درجة الحرارة 28°درجة مئوية
الرطوبة 84%
ضغط 1012 hPa
الرؤية 10 كم أو أكثر
غيوم قليلة على ارتفاع 2300 قدم

METAR: HDAM 181900Z 16005KT 9999 FEW023 28/25 Q1012

زمن: 05:39 (02:39 UTC)

توقعات

تاريخ ووقت الإصدار 3ساعات و 39 دقيقة قبل الساعة 23:00UTC
التوقعات صالحة من19 الساعة 00 UTC إلى 19 الساعة 24 UTC
ريح 3 عقدةمن اتجاهات متغيرة
الرؤية 10 كم أو أكثر
غيوم متفرقة على ارتفاع 2000 قدم
غيوم مفككة على ارتفاع 3000 قدم
مؤقت
من 19 الساعة 03 UTC إلى 19 الساعة 06 UTC
نظرية الاحتمالات 4O%
بين SH و RA UTC
غيوم متفرقة على ارتفاع 2000 قدم
غيوم مفككة على ارتفاع 3000 قدم
أصبح
من 19 الساعة 06 UTC إلى 19 الساعة 12 UTC
ريح 10 عقدة من الشرق
غيوم متفرقة على ارتفاع 3000 قدم

TAF: HDAM 182300Z 1900/1924 VRB03KT 9999 SCT020 BKN030 TEMPO 1903/1906 PROB4O SHRA SCT020 BKN030 BECMG 1906/1912 08010KT SCT030

أرصاد الطقس والتوقعات من أكثر من 4000 مطار (تقارير الطقس للمطار METAR والتنبؤ بالطقس بالمطارTAF).

المحطات المتاحة هي النقط الصفراء والحمراء على الخريطة.

حرك المؤشر فوق النقطة لمعرفة اسم المحطة.

ثم انقر لمعرفة أرصاد وتوقعات الطقس.

لتغيير الخارطة: اضغط على الأزرار الخضراء مع رمز الصليب الأسود للتكبير. على الزر الأخضر مع شرطة للتصغير، أو على الأسهم الخضراء للخرائط المجاورة.


METAR-TAF: